Search for airport 
image banner adimage banner adimage banner ad
image banner ad

KOXR - Oxnard

Located in Oxnard, United States

ICAO - OXR, IATA -

Data provided by Airmate  

General information

Coordinates: N34°12'3" W119°12'26"
Elevation is 45 feet MSL.
Magnetic variation is 15° East
View others Airports in California

Operational data

Special qualification required
Current time UTC:
Current local time:
Weather
METAR: KOXR 211251Z 25004KT 5SM BR OVC006 16/14 A2996 RMK AO2 SLP144 T01560144
TAF: KOXR 211257Z 2113/2212 VRB03KT 5SM BR OVC006 FM211600 26005KT 6SM BR OVC009 FM211900 26009KT P6SM OVC012 FM212200 27012KT P6SM BKN015 FM220300 28006KT 6SM BR OVC008 FM220600 VRB03KT 5SM BR OVC006
View NOTAMs / SUP AIP / TFR affecting this airport [VIEW]
Communications frequencies: [VIEW]

Runways:

RWY identifierQFULength (ft)Width (ft)SurfaceLDA (ft)
0791°5953100ASPH5954
25271°5953100ASPH5500

Airport contact information

Address: Oxnard United States

Other aviation service providers

Flight schools

Ventura County Flight Training Center

Ventura County Flight Training Center

Satellite view of KOXR